createdAt,value
2022-12-14T00:01:48.874Z,-4.20
2022-12-14T00:04:16.609Z,-4.20
2022-12-14T00:06:43.548Z,-4.20
2022-12-14T00:09:10.603Z,-4.20
2022-12-14T00:11:50.801Z,-4.20
2022-12-14T00:14:24.421Z,-4.10
2022-12-14T00:16:51.454Z,-4.10
2022-12-14T00:19:18.395Z,-4.10
2022-12-14T00:21:46.146Z,-4.10
2022-12-14T00:24:13.080Z,-4.10
2022-12-14T00:26:40.176Z,-4.10
2022-12-14T00:29:07.053Z,-4.20
2022-12-14T00:31:34.695Z,-4.20
2022-12-14T00:34:04.056Z,-4.20
2022-12-14T00:36:31.844Z,-4.20
2022-12-14T00:38:59.038Z,-4.30
2022-12-14T00:41:32.890Z,-4.30
2022-12-14T00:44:06.606Z,-4.30
2022-12-14T00:46:33.543Z,-4.30
2022-12-14T00:49:00.684Z,-4.20
2022-12-14T00:51:27.629Z,-4.20
2022-12-14T00:53:54.635Z,-4.10
2022-12-14T00:56:21.665Z,-4.10
2022-12-14T00:58:51.951Z,-4.00
2022-12-14T01:01:19.085Z,-4.00
2022-12-14T01:03:46.234Z,-3.90
2022-12-14T01:06:14.716Z,-3.90
2022-12-14T01:08:41.702Z,-3.80
2022-12-14T01:11:09.302Z,-3.80
2022-12-14T01:13:36.727Z,-3.80
2022-12-14T01:16:07.957Z,-3.80
2022-12-14T01:18:35.982Z,-3.80
2022-12-14T01:21:08.939Z,-3.80
2022-12-14T01:23:36.012Z,-3.90
2022-12-14T01:26:03.098Z,-3.90
2022-12-14T01:28:30.043Z,-4.00
2022-12-14T01:30:56.973Z,-4.00
2022-12-14T01:33:24.418Z,-4.00
2022-12-14T01:35:51.559Z,-4.10
2022-12-14T01:38:18.686Z,-4.10
2022-12-14T01:40:45.667Z,-4.20
2022-12-14T01:43:15.010Z,-4.20
2022-12-14T01:45:48.121Z,-4.20
2022-12-14T01:48:35.852Z,-4.20
2022-12-14T01:51:10.984Z,-4.30
2022-12-14T01:53:37.941Z,-4.30
2022-12-14T01:56:05.315Z,-4.30
2022-12-14T01:58:33.552Z,-4.30
2022-12-14T02:01:05.262Z,-4.40
2022-12-14T02:03:37.137Z,-4.50
2022-12-14T02:06:04.266Z,-4.40
2022-12-14T02:08:31.369Z,-4.50
2022-12-14T02:10:58.973Z,-4.50
2022-12-14T02:13:31.484Z,-4.50
2022-12-14T02:15:58.728Z,-4.50
2022-12-14T02:18:26.929Z,-4.50
2022-12-14T02:21:12.903Z,-4.50
2022-12-14T02:24:25.905Z,-4.50
2022-12-14T02:27:18.205Z,-4.50
2022-12-14T02:29:50.743Z,-4.50
2022-12-14T02:32:29.920Z,-4.50
2022-12-14T02:34:59.990Z,-4.50
2022-12-14T02:37:31.471Z,-4.50
2022-12-14T02:40:09.237Z,-4.40
2022-12-14T02:43:01.174Z,-4.30
2022-12-14T02:45:28.178Z,-4.30
2022-12-14T02:47:59.774Z,-4.40
2022-12-14T02:50:35.116Z,-4.40
2022-12-14T02:53:03.155Z,-4.40
2022-12-14T02:55:54.929Z,-4.40
2022-12-14T02:58:50.535Z,-4.40
2022-12-14T03:01:25.335Z,-4.40
2022-12-14T03:03:52.775Z,-4.30
2022-12-14T03:06:27.290Z,-4.20
2022-12-14T03:08:56.965Z,-4.10
2022-12-14T03:11:34.689Z,-4.20
2022-12-14T03:14:06.670Z,-4.20
2022-12-14T03:16:40.104Z,-4.20
2022-12-14T03:19:26.181Z,-4.20
2022-12-14T03:22:02.261Z,-4.20
2022-12-14T03:24:32.604Z,-4.20
2022-12-14T03:27:02.629Z,-4.10
2022-12-14T03:29:30.634Z,-4.10
2022-12-14T03:32:00.127Z,-4.10
2022-12-14T03:34:34.194Z,-4.10
2022-12-14T03:37:16.146Z,-4.00
2022-12-14T03:39:44.255Z,-4.10
2022-12-14T03:42:23.409Z,-4.00
2022-12-14T03:44:57.262Z,-4.00
2022-12-14T03:47:39.370Z,-4.00
2022-12-14T03:50:10.766Z,-3.90
2022-12-14T03:52:44.862Z,-3.90
2022-12-14T03:55:28.583Z,-4.00
2022-12-14T03:58:02.318Z,-4.00
2022-12-14T04:00:30.986Z,-4.00
2022-12-14T04:03:23.002Z,-4.00
2022-12-14T04:05:54.871Z,-3.90
2022-12-14T04:08:26.860Z,-3.90
2022-12-14T04:11:28.196Z,-3.80
2022-12-14T04:14:28.826Z,-3.90
2022-12-14T04:17:16.253Z,-4.00
2022-12-14T04:19:55.740Z,-4.00
2022-12-14T04:22:26.173Z,-4.10
2022-12-14T04:25:11.847Z,-4.10
2022-12-14T04:27:44.665Z,-4.10
2022-12-14T04:30:12.537Z,-4.10
2022-12-14T04:32:51.824Z,-4.00
2022-12-14T04:35:28.587Z,-4.00
2022-12-14T04:37:57.589Z,-4.00
2022-12-14T04:40:27.950Z,-4.00
2022-12-14T04:43:07.981Z,-4.00
2022-12-14T04:45:36.747Z,-4.00
2022-12-14T04:48:07.922Z,-4.00
2022-12-14T04:50:37.759Z,-4.00
2022-12-14T04:53:10.173Z,-4.00
2022-12-14T04:55:49.762Z,-3.90
2022-12-14T04:58:20.638Z,-3.90
2022-12-14T05:00:54.037Z,-3.80
2022-12-14T05:03:28.415Z,-3.80
2022-12-14T05:06:05.043Z,-3.80
2022-12-14T05:08:51.016Z,-3.80
2022-12-14T05:14:45.305Z,-3.80
2022-12-14T05:17:12.601Z,-3.80
2022-12-14T05:19:49.843Z,-3.90
2022-12-14T05:22:17.627Z,-3.90
2022-12-14T05:24:44.565Z,-3.90
2022-12-14T05:27:11.579Z,-3.90
2022-12-14T05:29:38.760Z,-3.80
2022-12-14T05:32:05.795Z,-3.80
2022-12-14T05:34:32.820Z,-3.80
2022-12-14T05:37:18.221Z,-3.80
2022-12-14T05:39:58.216Z,-3.70
2022-12-14T05:42:32.027Z,-3.70
2022-12-14T05:44:59.082Z,-3.70
2022-12-14T05:47:26.617Z,-3.70
2022-12-14T05:49:53.638Z,-3.70
2022-12-14T05:52:20.868Z,-3.70
2022-12-14T05:54:47.948Z,-3.60
2022-12-14T05:57:15.041Z,-3.60
2022-12-14T05:59:42.030Z,-3.60
2022-12-14T06:02:09.255Z,-3.50
2022-12-14T06:04:36.386Z,-3.50
2022-12-14T06:07:06.514Z,-3.50
2022-12-14T06:09:33.604Z,-3.40
2022-12-14T06:12:00.683Z,-3.40
2022-12-14T06:14:28.130Z,-3.50
2022-12-14T06:16:55.213Z,-3.50
2022-12-14T06:19:22.222Z,-3.40
2022-12-14T06:21:49.430Z,-3.40
2022-12-14T06:24:16.558Z,-3.40
2022-12-14T06:26:43.669Z,-3.40
2022-12-14T06:29:15.570Z,-3.40
2022-12-14T06:31:42.705Z,-3.50
2022-12-14T06:34:10.072Z,-3.40
2022-12-14T06:36:38.193Z,-3.40
2022-12-14T06:39:06.526Z,-3.40
2022-12-14T06:41:47.187Z,-3.40
2022-12-14T06:44:21.143Z,-3.40
2022-12-14T06:46:48.321Z,-3.40
2022-12-14T06:49:16.045Z,-3.40
2022-12-14T06:51:43.546Z,-3.40
2022-12-14T06:54:11.553Z,-3.30
2022-12-14T06:56:38.641Z,-3.30
2022-12-14T06:59:05.962Z,-3.30
2022-12-14T07:01:33.151Z,-3.20
2022-12-14T07:04:00.397Z,-3.20
2022-12-14T07:06:28.394Z,-3.10
2022-12-14T07:08:56.850Z,-3.10
2022-12-14T07:11:24.716Z,-3.00
2022-12-14T07:13:51.808Z,-3.00
2022-12-14T07:16:21.691Z,-3.00
2022-12-14T07:18:48.762Z,-3.00
2022-12-14T07:21:19.671Z,-2.80
2022-12-14T07:23:48.119Z,-2.80
2022-12-14T07:26:33.257Z,-2.80
2022-12-14T07:29:00.929Z,-2.80
2022-12-14T07:31:28.820Z,-2.90
2022-12-14T07:33:57.146Z,-2.90
2022-12-14T07:36:25.239Z,-2.80
2022-12-14T07:38:52.418Z,-2.90
2022-12-14T07:41:31.324Z,-2.90
2022-12-14T07:44:18.350Z,-2.80
2022-12-14T07:46:53.232Z,-2.70
2022-12-14T07:49:20.393Z,-2.80
2022-12-14T07:51:47.551Z,-2.80
2022-12-14T07:54:14.736Z,-2.80
2022-12-14T07:56:43.092Z,-2.70
2022-12-14T07:59:15.336Z,-2.70
2022-12-14T08:01:43.858Z,-2.70
2022-12-14T08:04:15.216Z,-2.70
2022-12-14T08:06:42.484Z,-2.80
2022-12-14T08:09:10.493Z,-2.90
2022-12-14T08:11:37.872Z,-3.00
2022-12-14T08:14:06.048Z,-2.90
2022-12-14T08:16:46.364Z,-2.80
2022-12-14T08:19:20.115Z,-2.80
2022-12-14T08:21:47.453Z,-2.70
2022-12-14T08:24:14.929Z,-2.70
2022-12-14T08:26:41.980Z,-2.60
2022-12-14T08:29:12.948Z,-2.60
2022-12-14T08:31:40.349Z,-2.70
2022-12-14T08:34:07.522Z,-2.80
2022-12-14T08:36:34.756Z,-2.80
2022-12-14T08:39:06.901Z,-2.80
2022-12-14T08:41:34.322Z,-2.80
2022-12-14T08:44:02.342Z,-2.90
2022-12-14T08:46:30.844Z,-2.90
2022-12-14T08:48:58.205Z,-2.90
2022-12-14T08:51:25.965Z,-2.90
2022-12-14T08:53:53.478Z,-2.90
2022-12-14T08:56:28.488Z,-2.80
2022-12-14T08:59:36.604Z,-2.80
2022-12-14T09:02:16.509Z,-2.80
2022-12-14T09:04:50.084Z,-2.80
2022-12-14T09:07:23.394Z,-2.90
2022-12-14T09:10:10.364Z,-2.90
2022-12-14T09:12:51.341Z,-2.90
2022-12-14T09:15:38.372Z,-2.70
2022-12-14T09:18:18.534Z,-2.80
2022-12-14T09:21:05.297Z,-2.90
2022-12-14T09:23:51.362Z,-2.90
2022-12-14T09:26:28.277Z,-2.90
2022-12-14T09:28:56.023Z,-2.90
2022-12-14T09:31:23.788Z,-2.90
2022-12-14T09:33:53.341Z,-2.90
2022-12-14T09:36:21.802Z,-2.90
2022-12-14T09:38:51.981Z,-3.00
2022-12-14T09:41:35.158Z,-2.90
2022-12-14T09:44:05.570Z,-2.80
2022-12-14T09:46:35.424Z,-2.80
2022-12-14T09:49:03.042Z,-2.80
2022-12-14T09:51:37.065Z,-2.70
2022-12-14T09:54:13.556Z,-2.70
2022-12-14T09:57:01.460Z,-2.60
2022-12-14T09:59:35.590Z,-2.50
2022-12-14T10:02:31.444Z,-2.40
2022-12-14T10:05:11.424Z,-2.40
2022-12-14T10:07:48.676Z,-2.40
2022-12-14T10:10:35.809Z,-2.40
2022-12-14T10:13:12.677Z,-2.40
2022-12-14T10:15:49.119Z,-2.40
2022-12-14T10:18:49.859Z,-2.10
2022-12-14T10:21:14.005Z,-1.90
2022-12-14T10:23:42.552Z,-2.00
2022-12-14T10:26:11.720Z,-2.00
2022-12-14T10:28:38.790Z,-2.20
2022-12-14T10:31:08.181Z,-2.00
2022-12-14T10:33:39.005Z,-2.10
2022-12-14T10:36:14.337Z,-2.20
2022-12-14T10:38:50.600Z,-2.20
2022-12-14T10:41:24.776Z,-2.30
2022-12-14T10:44:01.355Z,-2.30
2022-12-14T10:46:47.311Z,-2.30
2022-12-14T10:49:17.738Z,-2.30
2022-12-14T10:51:49.785Z,-2.30
2022-12-14T10:54:24.111Z,-2.30
2022-12-14T10:56:51.574Z,-2.30
2022-12-14T10:59:18.638Z,-2.10
2022-12-14T11:01:47.215Z,-2.10
2022-12-14T11:04:23.393Z,-2.10
2022-12-14T11:06:59.739Z,-2.10
2022-12-14T11:09:26.947Z,-2.10
2022-12-14T11:12:05.673Z,-2.00
2022-12-14T11:14:34.275Z,-1.90
2022-12-14T11:17:01.418Z,-1.90
2022-12-14T11:19:29.285Z,-1.90
2022-12-14T11:22:18.681Z,-1.90
2022-12-14T11:24:49.249Z,-1.90
2022-12-14T11:27:21.335Z,-1.80
2022-12-14T11:29:50.822Z,-1.80
2022-12-14T11:32:24.126Z,-1.60
2022-12-14T11:34:59.009Z,-1.50
2022-12-14T11:37:27.995Z,-1.50
2022-12-14T11:39:56.716Z,-1.50
2022-12-14T11:42:24.035Z,-1.50
2022-12-14T11:45:17.726Z,-1.50
2022-12-14T11:48:23.504Z,-1.50
2022-12-14T11:51:14.117Z,-1.40
2022-12-14T11:54:14.441Z,-1.30
2022-12-14T11:56:51.885Z,-1.30
2022-12-14T11:59:19.824Z,-1.20
2022-12-14T12:01:46.995Z,-1.20
2022-12-14T12:04:15.926Z,-1.20
2022-12-14T12:06:43.263Z,-1.10
2022-12-14T12:09:25.836Z,-1.10
2022-12-14T12:11:52.991Z,-1.10
2022-12-14T12:14:29.855Z,-1.10
2022-12-14T12:16:57.917Z,-1.10
2022-12-14T12:19:27.104Z,-1.10
2022-12-14T12:21:54.985Z,-1.10
2022-12-14T12:25:16.801Z,-1.00
2022-12-14T12:27:38.559Z,-1.00
2022-12-14T12:30:07.681Z,-1.00
2022-12-14T12:32:42.658Z,-1.00
2022-12-14T12:35:29.572Z,-1.00
2022-12-14T12:38:23.663Z,-0.90
2022-12-14T12:41:19.585Z,-0.80
2022-12-14T12:44:11.602Z,-0.80
2022-12-14T12:47:24.759Z,-0.80
2022-12-14T12:49:59.071Z,-0.70
2022-12-14T12:53:03.496Z,-0.70
2022-12-14T12:55:46.136Z,-0.80
2022-12-14T12:58:19.299Z,-0.70
2022-12-14T13:00:48.701Z,-0.90
2022-12-14T13:03:21.964Z,-1.00
2022-12-14T13:05:49.372Z,-1.10
2022-12-14T13:08:27.482Z,-1.10
2022-12-14T13:11:24.936Z,-1.10
2022-12-14T13:14:11.158Z,-1.20
2022-12-14T13:16:57.519Z,-1.20
2022-12-14T13:19:52.080Z,-1.30
2022-12-14T13:22:38.543Z,-1.30
2022-12-14T13:25:30.851Z,-1.40
2022-12-14T13:28:10.574Z,-1.40
2022-12-14T13:30:57.723Z,-1.50
2022-12-14T13:33:43.627Z,-1.50
2022-12-14T13:36:40.683Z,-1.60
2022-12-14T13:39:30.660Z,-1.60
2022-12-14T13:42:17.552Z,-1.70
2022-12-14T13:45:08.669Z,-1.70
2022-12-14T13:47:51.687Z,-1.80
2022-12-14T13:50:53.009Z,-1.90
2022-12-14T13:53:56.664Z,-1.90
2022-12-14T13:56:44.728Z,-2.00
2022-12-14T13:59:37.569Z,-2.10
2022-12-14T14:02:47.800Z,-2.10
2022-12-14T14:05:30.570Z,-2.10
2022-12-14T14:08:39.290Z,-2.20
2022-12-14T14:11:36.342Z,-2.20
2022-12-14T14:14:22.626Z,-2.20
2022-12-14T14:17:01.560Z,-2.30
2022-12-14T14:19:38.985Z,-2.30
2022-12-14T14:22:27.320Z,-2.50
2022-12-14T14:24:58.680Z,-2.60
2022-12-14T14:27:30.340Z,-2.70
2022-12-14T14:29:58.205Z,-2.80
2022-12-14T14:32:30.993Z,-2.90
2022-12-14T14:34:58.229Z,-3.00
2022-12-14T14:37:27.359Z,-3.00
2022-12-14T14:40:23.757Z,-3.10
2022-12-14T14:43:05.931Z,-3.10
2022-12-14T14:46:02.479Z,-3.20
2022-12-14T14:48:34.783Z,-3.20
2022-12-14T14:51:07.541Z,-3.30
2022-12-14T14:53:35.970Z,-3.30
2022-12-14T14:56:05.792Z,-3.40
2022-12-14T14:58:35.478Z,-3.50
2022-12-14T15:01:06.392Z,-3.50
2022-12-14T15:03:58.775Z,-3.50
2022-12-14T15:06:43.810Z,-3.60
2022-12-14T15:09:36.031Z,-3.70
2022-12-14T15:12:27.982Z,-3.80
2022-12-14T15:14:57.997Z,-3.90
2022-12-14T15:17:25.330Z,-3.90
2022-12-14T15:19:56.268Z,-3.90
2022-12-14T15:22:27.204Z,-4.00
2022-12-14T15:24:56.272Z,-4.00
2022-12-14T15:27:35.861Z,-4.00
2022-12-14T15:30:30.765Z,-4.00
2022-12-14T15:33:07.722Z,-4.10
2022-12-14T15:35:36.543Z,-4.10
2022-12-14T15:38:07.765Z,-4.10
2022-12-14T15:40:35.584Z,-4.10
2022-12-14T15:43:04.119Z,-4.20
2022-12-14T15:45:32.211Z,-4.20
2022-12-14T15:48:15.709Z,-4.10
2022-12-14T15:50:46.293Z,-4.20
2022-12-14T15:53:32.618Z,-4.20
2022-12-14T15:56:06.769Z,-4.20
2022-12-14T15:58:39.034Z,-4.30
2022-12-14T16:01:13.308Z,-4.30
2022-12-14T16:03:42.765Z,-4.20
2022-12-14T16:06:12.346Z,-4.30
2022-12-14T16:08:44.146Z,-4.30
2022-12-14T16:11:16.205Z,-4.30
2022-12-14T16:13:44.274Z,-4.30
2022-12-14T16:16:26.745Z,-4.30
2022-12-14T16:19:20.279Z,-4.20
2022-12-14T16:21:49.705Z,-4.20
2022-12-14T16:24:22.470Z,-4.10
2022-12-14T16:26:56.775Z,-4.10
2022-12-14T16:29:27.750Z,-4.10
2022-12-14T16:32:01.982Z,-4.00
2022-12-14T16:34:29.405Z,-4.10
2022-12-14T16:37:31.037Z,-4.00
2022-12-14T16:39:56.756Z,-4.00
2022-12-14T16:42:44.749Z,-4.00
2022-12-14T16:45:38.469Z,-4.00
2022-12-14T16:48:16.289Z,-3.90
2022-12-14T16:50:57.432Z,-3.90
2022-12-14T16:53:29.986Z,-3.90
2022-12-14T16:56:00.349Z,-3.80
2022-12-14T16:58:27.422Z,-3.80
2022-12-14T17:01:06.291Z,-3.80
2022-12-14T17:03:34.197Z,-3.80
2022-12-14T17:06:03.047Z,-3.80
2022-12-14T17:08:31.890Z,-3.70
2022-12-14T17:10:59.717Z,-3.70
2022-12-14T17:13:27.233Z,-3.80
2022-12-14T17:16:06.227Z,-3.90
2022-12-14T17:18:47.865Z,-4.00
2022-12-14T17:21:26.484Z,-4.10
2022-12-14T17:23:54.370Z,-4.10
2022-12-14T17:26:31.819Z,-4.10
2022-12-14T17:28:59.056Z,-4.20
2022-12-14T17:31:29.432Z,-4.30
2022-12-14T17:33:57.681Z,-4.30
2022-12-14T17:36:25.457Z,-4.40
2022-12-14T17:38:55.719Z,-4.30
2022-12-14T17:41:26.416Z,-4.50
2022-12-14T17:43:57.405Z,-4.50
2022-12-14T17:46:25.419Z,-4.50
2022-12-14T17:48:54.189Z,-4.60
2022-12-14T17:51:25.379Z,-4.60
2022-12-14T17:53:53.652Z,-4.70
2022-12-14T17:56:21.220Z,-4.80
2022-12-14T17:58:54.907Z,-4.80
2022-12-14T18:01:28.666Z,-4.90
2022-12-14T18:03:55.940Z,-4.90
2022-12-14T18:06:23.064Z,-5.00
2022-12-14T18:08:50.245Z,-5.00
2022-12-14T18:11:21.634Z,-5.10
2022-12-14T18:13:49.119Z,-5.10
2022-12-14T18:16:19.045Z,-5.10
2022-12-14T18:18:46.163Z,-5.10
2022-12-14T18:21:15.469Z,-5.30
2022-12-14T18:23:42.528Z,-5.40
2022-12-14T18:26:09.676Z,-5.50
2022-12-14T18:28:37.006Z,-5.50
2022-12-14T18:31:19.317Z,-5.60
2022-12-14T18:33:52.619Z,-5.60
2022-12-14T18:36:21.670Z,-5.60
2022-12-14T18:38:49.638Z,-5.70
2022-12-14T18:41:18.648Z,-5.70
2022-12-14T18:43:45.852Z,-5.80
2022-12-14T18:46:13.036Z,-5.90
2022-12-14T18:48:40.660Z,-5.90
2022-12-14T18:51:07.989Z,-5.90
2022-12-14T18:53:35.207Z,-5.90
2022-12-14T18:56:03.214Z,-5.80
2022-12-14T18:58:30.289Z,-5.90
2022-12-14T19:00:58.745Z,-5.90
2022-12-14T19:03:26.890Z,-6.00
2022-12-14T19:06:34.377Z,-6.00
2022-12-14T19:08:49.611Z,-6.00
2022-12-14T19:11:19.944Z,-6.00
2022-12-14T19:13:48.487Z,-6.10
2022-12-14T19:16:15.586Z,-6.10
2022-12-14T19:18:42.735Z,-6.10
2022-12-14T19:21:10.179Z,-6.10
2022-12-14T19:23:51.008Z,-6.10
2022-12-14T19:26:30.936Z,-6.20
2022-12-14T19:29:04.892Z,-6.20
2022-12-14T19:31:32.748Z,-6.30
2022-12-14T19:33:59.855Z,-6.30
2022-12-14T19:36:26.989Z,-6.30
2022-12-14T19:38:56.328Z,-6.40
2022-12-14T19:41:24.332Z,-6.50
2022-12-14T19:43:51.462Z,-6.60
2022-12-14T19:46:18.683Z,-6.60
2022-12-14T19:48:45.794Z,-6.60
2022-12-14T19:51:13.609Z,-6.70
2022-12-14T19:53:41.389Z,-6.80
2022-12-14T19:56:08.858Z,-6.80
2022-12-14T19:58:36.223Z,-6.80
2022-12-14T20:01:07.681Z,-6.80
2022-12-14T20:03:35.457Z,-6.80
2022-12-14T20:06:03.816Z,-6.80
2022-12-14T20:08:31.514Z,-6.90
2022-12-14T20:10:59.133Z,-6.90
2022-12-14T20:13:27.057Z,-6.90
2022-12-14T20:15:55.859Z,-6.90
2022-12-14T20:18:35.851Z,-6.90
2022-12-14T20:21:09.796Z,-6.90
2022-12-14T20:23:37.363Z,-6.90
2022-12-14T20:26:05.770Z,-7.00
2022-12-14T20:28:33.172Z,-7.00
2022-12-14T20:31:01.315Z,-7.00
2022-12-14T20:33:30.575Z,-7.00
2022-12-14T20:35:58.104Z,-7.00
2022-12-14T20:38:25.392Z,-7.00
2022-12-14T20:40:54.483Z,-7.00
2022-12-14T20:43:21.449Z,-7.00
2022-12-14T20:45:48.590Z,-7.00
2022-12-14T20:48:15.517Z,-7.00
2022-12-14T20:50:43.224Z,-7.00
2022-12-14T20:53:12.907Z,-7.00
2022-12-14T20:55:39.851Z,-7.00
2022-12-14T20:58:06.900Z,-7.00
2022-12-14T21:00:33.908Z,-7.10
2022-12-14T21:03:01.023Z,-7.00
2022-12-14T21:05:28.018Z,-7.00
2022-12-14T21:07:55.226Z,-7.10
2022-12-14T21:10:22.218Z,-7.10
2022-12-14T21:12:49.400Z,-7.10
2022-12-14T21:15:16.520Z,-7.10
2022-12-14T21:17:43.577Z,-7.20
2022-12-14T21:20:11.572Z,-7.20
2022-12-14T21:22:38.804Z,-7.20
2022-12-14T21:25:07.178Z,-7.20
2022-12-14T21:27:35.984Z,-7.20
2022-12-14T21:30:03.546Z,-7.20
2022-12-14T21:32:30.660Z,-7.20
2022-12-14T21:34:57.664Z,-7.30
2022-12-14T21:37:27.763Z,-7.30
2022-12-14T21:40:42.798Z,-7.30
2022-12-14T21:43:33.661Z,-7.30
2022-12-14T21:46:42.245Z,-7.30
2022-12-14T21:49:38.995Z,-7.30
2022-12-14T21:56:33.561Z,-7.40
2022-12-14T21:59:28.058Z,-7.40
2022-12-14T22:02:11.827Z,-7.40
2022-12-14T22:05:12.584Z,-7.50
2022-12-14T22:12:01.648Z,-7.60
2022-12-14T22:14:57.062Z,-7.60
2022-12-14T22:18:10.002Z,-7.50
2022-12-14T22:20:58.351Z,-7.60
2022-12-14T22:23:43.279Z,-7.60
2022-12-14T22:26:31.095Z,-7.60
2022-12-14T22:29:12.036Z,-7.60
2022-12-14T22:31:59.220Z,-7.60
2022-12-14T22:34:39.421Z,-7.60
2022-12-14T22:37:26.143Z,-7.60
2022-12-14T22:40:06.071Z,-7.70
2022-12-14T22:42:53.115Z,-7.70
2022-12-14T22:45:37.236Z,-7.70
2022-12-14T22:48:27.139Z,-7.70
2022-12-14T22:51:17.038Z,-7.70
2022-12-14T22:53:57.800Z,-7.70
2022-12-14T22:56:45.234Z,-7.70
2022-12-14T22:59:27.138Z,-7.80
2022-12-14T23:02:14.241Z,-7.80
2022-12-14T23:04:54.206Z,-7.70
2022-12-14T23:07:41.023Z,-7.80
2022-12-14T23:10:46.087Z,-7.80
2022-12-14T23:13:48.688Z,-7.80
2022-12-14T23:16:54.182Z,-7.80
2022-12-14T23:20:04.408Z,-7.70
2022-12-14T23:23:04.060Z,-7.70
2022-12-14T23:26:10.153Z,-7.60
2022-12-14T23:29:09.092Z,-7.70
2022-12-14T23:32:14.099Z,-7.70
2022-12-14T23:35:13.215Z,-7.60
2022-12-14T23:38:18.100Z,-7.70
2022-12-14T23:41:17.809Z,-7.60
2022-12-14T23:44:23.111Z,-7.70
2022-12-14T23:47:21.972Z,-7.60
2022-12-14T23:50:27.147Z,-7.60
2022-12-14T23:53:36.209Z,-7.60
2022-12-14T23:56:42.085Z,-7.70
2022-12-14T23:59:41.042Z,-7.60
